sensor_id;sensor_type;location;lat;lon;timestamp;P1;durP1;ratioP1;P2;durP2;ratioP2
62574;SDS011;53112;45.602;11.904;2022-08-21T00:01:04;4.90;;;2.75;;
62574;SDS011;53112;45.602;11.904;2022-08-21T00:03:35;3.72;;;2.60;;
62574;SDS011;53112;45.602;11.904;2022-08-21T00:06:01;3.92;;;2.67;;
62574;SDS011;53112;45.602;11.904;2022-08-21T00:08:27;2.85;;;2.22;;
62574;SDS011;53112;45.602;11.904;2022-08-21T00:10:54;4.40;;;2.30;;
62574;SDS011;53112;45.602;11.904;2022-08-21T00:13:20;3.58;;;2.60;;
62574;SDS011;53112;45.602;11.904;2022-08-21T00:15:46;4.22;;;2.38;;
62574;SDS011;53112;45.602;11.904;2022-08-21T00:18:13;3.50;;;2.65;;
62574;SDS011;53112;45.602;11.904;2022-08-21T00:20:40;4.50;;;2.90;;
62574;SDS011;53112;45.602;11.904;2022-08-21T00:23:07;4.38;;;2.50;;
62574;SDS011;53112;45.602;11.904;2022-08-21T00:25:34;4.32;;;2.40;;
62574;SDS011;53112;45.602;11.904;2022-08-21T00:28:00;3.70;;;2.53;;
62574;SDS011;53112;45.602;11.904;2022-08-21T00:30:27;3.10;;;2.30;;
62574;SDS011;53112;45.602;11.904;2022-08-21T00:32:54;2.72;;;2.20;;
62574;SDS011;53112;45.602;11.904;2022-08-21T00:35:26;2.83;;;2.30;;
62574;SDS011;53112;45.602;11.904;2022-08-21T00:37:55;2.95;;;2.35;;
62574;SDS011;53112;45.602;11.904;2022-08-21T00:40:24;4.03;;;2.45;;
62574;SDS011;53112;45.602;11.904;2022-08-21T00:43:00;5.95;;;2.70;;
62574;SDS011;53112;45.602;11.904;2022-08-21T00:45:32;4.18;;;2.60;;
62574;SDS011;53112;45.602;11.904;2022-08-21T00:47:59;3.88;;;2.90;;
62574;SDS011;53112;45.602;11.904;2022-08-21T00:50:27;3.88;;;2.50;;
62574;SDS011;53112;45.602;11.904;2022-08-21T00:52:57;3.30;;;2.40;;
62574;SDS011;53112;45.602;11.904;2022-08-21T00:55:25;4.78;;;2.60;;
62574;SDS011;53112;45.602;11.904;2022-08-21T00:57:54;3.53;;;2.65;;
62574;SDS011;53112;45.602;11.904;2022-08-21T01:00:25;3.28;;;2.30;;
62574;SDS011;53112;45.602;11.904;2022-08-21T01:02:56;5.00;;;2.60;;
62574;SDS011;53112;45.602;11.904;2022-08-21T01:05:24;3.72;;;2.42;;
62574;SDS011;53112;45.602;11.904;2022-08-21T01:07:52;3.90;;;2.35;;
62574;SDS011;53112;45.602;11.904;2022-08-21T01:10:19;3.33;;;2.40;;
62574;SDS011;53112;45.602;11.904;2022-08-21T01:12:45;3.38;;;2.58;;
62574;SDS011;53112;45.602;11.904;2022-08-21T01:15:11;4.03;;;2.85;;
62574;SDS011;53112;45.602;11.904;2022-08-21T01:17:40;6.70;;;2.70;;
62574;SDS011;53112;45.602;11.904;2022-08-21T01:20:07;4.80;;;2.70;;
62574;SDS011;53112;45.602;11.904;2022-08-21T01:22:36;3.85;;;2.28;;
62574;SDS011;53112;45.602;11.904;2022-08-21T01:25:04;4.18;;;2.47;;
62574;SDS011;53112;45.602;11.904;2022-08-21T01:27:32;5.03;;;2.72;;
62574;SDS011;53112;45.602;11.904;2022-08-21T01:30:01;3.17;;;2.40;;
62574;SDS011;53112;45.602;11.904;2022-08-21T01:32:35;3.13;;;2.60;;
62574;SDS011;53112;45.602;11.904;2022-08-21T01:35:02;5.53;;;2.60;;
62574;SDS011;53112;45.602;11.904;2022-08-21T01:37:28;5.60;;;2.65;;
62574;SDS011;53112;45.602;11.904;2022-08-21T01:39:54;3.50;;;2.50;;
62574;SDS011;53112;45.602;11.904;2022-08-21T01:42:20;4.15;;;2.85;;
62574;SDS011;53112;45.602;11.904;2022-08-21T01:44:46;4.85;;;2.88;;
62574;SDS011;53112;45.602;11.904;2022-08-21T01:47:13;5.72;;;2.92;;
62574;SDS011;53112;45.602;11.904;2022-08-21T01:49:40;3.95;;;2.80;;
62574;SDS011;53112;45.602;11.904;2022-08-21T01:52:07;5.05;;;2.83;;
62574;SDS011;53112;45.602;11.904;2022-08-21T01:54:34;4.10;;;2.70;;
62574;SDS011;53112;45.602;11.904;2022-08-21T01:57:00;3.63;;;2.30;;
62574;SDS011;53112;45.602;11.904;2022-08-21T01:59:27;3.60;;;2.40;;
62574;SDS011;53112;45.602;11.904;2022-08-21T02:01:53;3.05;;;2.58;;
62574;SDS011;53112;45.602;11.904;2022-08-21T02:04:20;4.38;;;2.88;;
62574;SDS011;53112;45.602;11.904;2022-08-21T02:06:46;4.20;;;2.80;;
62574;SDS011;53112;45.602;11.904;2022-08-21T02:09:12;5.22;;;2.63;;
62574;SDS011;53112;45.602;11.904;2022-08-21T02:11:39;3.10;;;2.40;;
62574;SDS011;53112;45.602;11.904;2022-08-21T02:14:09;2.65;;;2.25;;
62574;SDS011;53112;45.602;11.904;2022-08-21T02:16:37;4.30;;;2.45;;
62574;SDS011;53112;45.602;11.904;2022-08-21T02:19:04;3.72;;;2.30;;
62574;SDS011;53112;45.602;11.904;2022-08-21T02:21:30;5.22;;;2.28;;
62574;SDS011;53112;45.602;11.904;2022-08-21T02:23:56;5.68;;;2.80;;
62574;SDS011;53112;45.602;11.904;2022-08-21T02:26:22;6.28;;;2.50;;
62574;SDS011;53112;45.602;11.904;2022-08-21T02:28:48;3.58;;;2.30;;
62574;SDS011;53112;45.602;11.904;2022-08-21T02:31:15;2.50;;;2.28;;
62574;SDS011;53112;45.602;11.904;2022-08-21T02:33:41;4.40;;;3.00;;
62574;SDS011;53112;45.602;11.904;2022-08-21T02:36:08;4.55;;;2.58;;
62574;SDS011;53112;45.602;11.904;2022-08-21T02:38:36;5.22;;;2.80;;
62574;SDS011;53112;45.602;11.904;2022-08-21T02:41:05;5.38;;;2.83;;
62574;SDS011;53112;45.602;11.904;2022-08-21T02:43:33;3.53;;;2.58;;
62574;SDS011;53112;45.602;11.904;2022-08-21T02:45:59;4.30;;;2.70;;
62574;SDS011;53112;45.602;11.904;2022-08-21T02:48:26;2.80;;;2.28;;
62574;SDS011;53112;45.602;11.904;2022-08-21T02:50:55;4.05;;;2.50;;
62574;SDS011;53112;45.602;11.904;2022-08-21T02:53:32;4.63;;;3.28;;
62574;SDS011;53112;45.602;11.904;2022-08-21T02:56:00;5.78;;;3.08;;
62574;SDS011;53112;45.602;11.904;2022-08-21T02:58:31;5.53;;;3.28;;
62574;SDS011;53112;45.602;11.904;2022-08-21T03:01:02;5.18;;;3.03;;
62574;SDS011;53112;45.602;11.904;2022-08-21T03:03:29;6.70;;;2.88;;
62574;SDS011;53112;45.602;11.904;2022-08-21T03:05:55;4.40;;;2.60;;
62574;SDS011;53112;45.602;11.904;2022-08-21T03:08:22;3.92;;;2.75;;
62574;SDS011;53112;45.602;11.904;2022-08-21T03:10:49;4.32;;;2.45;;
62574;SDS011;53112;45.602;11.904;2022-08-21T03:13:18;4.28;;;2.47;;
62574;SDS011;53112;45.602;11.904;2022-08-21T03:15:46;3.72;;;2.72;;
62574;SDS011;53112;45.602;11.904;2022-08-21T03:18:13;3.53;;;2.60;;
62574;SDS011;53112;45.602;11.904;2022-08-21T03:20:39;3.65;;;2.33;;
62574;SDS011;53112;45.602;11.904;2022-08-21T03:23:06;3.55;;;2.40;;
62574;SDS011;53112;45.602;11.904;2022-08-21T03:25:33;4.28;;;2.75;;
62574;SDS011;53112;45.602;11.904;2022-08-21T03:28:00;5.78;;;2.92;;
62574;SDS011;53112;45.602;11.904;2022-08-21T03:30:28;4.13;;;2.88;;
62574;SDS011;53112;45.602;11.904;2022-08-21T03:32:57;3.88;;;2.70;;
62574;SDS011;53112;45.602;11.904;2022-08-21T03:35:24;5.50;;;2.95;;
62574;SDS011;53112;45.602;11.904;2022-08-21T03:37:51;4.80;;;3.15;;
62574;SDS011;53112;45.602;11.904;2022-08-21T03:40:19;4.40;;;2.80;;
62574;SDS011;53112;45.602;11.904;2022-08-21T03:42:46;2.63;;;2.20;;
62574;SDS011;53112;45.602;11.904;2022-08-21T03:45:13;3.60;;;2.67;;
62574;SDS011;53112;45.602;11.904;2022-08-21T03:47:50;2.63;;;2.38;;
62574;SDS011;53112;45.602;11.904;2022-08-21T03:50:22;3.72;;;2.58;;
62574;SDS011;53112;45.602;11.904;2022-08-21T03:52:49;3.05;;;2.20;;
62574;SDS011;53112;45.602;11.904;2022-08-21T03:55:15;4.03;;;2.60;;
62574;SDS011;53112;45.602;11.904;2022-08-21T03:57:41;4.13;;;2.83;;
62574;SDS011;53112;45.602;11.904;2022-08-21T04:00:07;6.07;;;2.90;;
62574;SDS011;53112;45.602;11.904;2022-08-21T04:02:37;3.65;;;2.50;;
62574;SDS011;53112;45.602;11.904;2022-08-21T04:05:05;3.70;;;2.60;;
62574;SDS011;53112;45.602;11.904;2022-08-21T04:07:31;3.75;;;2.70;;
62574;SDS011;53112;45.602;11.904;2022-08-21T04:09:57;5.25;;;2.70;;
62574;SDS011;53112;45.602;11.904;2022-08-21T04:12:23;4.57;;;2.70;;
62574;SDS011;53112;45.602;11.904;2022-08-21T04:14:49;3.22;;;2.50;;
62574;SDS011;53112;45.602;11.904;2022-08-21T04:17:19;6.25;;;2.70;;
62574;SDS011;53112;45.602;11.904;2022-08-21T04:19:45;3.67;;;2.92;;
62574;SDS011;53112;45.602;11.904;2022-08-21T04:22:11;5.45;;;2.92;;
62574;SDS011;53112;45.602;11.904;2022-08-21T04:24:37;3.80;;;2.60;;
62574;SDS011;53112;45.602;11.904;2022-08-21T04:27:03;4.00;;;2.75;;
62574;SDS011;53112;45.602;11.904;2022-08-21T04:29:29;3.85;;;2.42;;
62574;SDS011;53112;45.602;11.904;2022-08-21T04:31:55;5.43;;;3.00;;
62574;SDS011;53112;45.602;11.904;2022-08-21T04:34:20;4.57;;;2.45;;
62574;SDS011;53112;45.602;11.904;2022-08-21T04:36:46;4.43;;;2.80;;
62574;SDS011;53112;45.602;11.904;2022-08-21T04:39:12;5.82;;;3.30;;
62574;SDS011;53112;45.602;11.904;2022-08-21T04:41:38;4.18;;;2.92;;
62574;SDS011;53112;45.602;11.904;2022-08-21T04:44:05;6.13;;;2.95;;
62574;SDS011;53112;45.602;11.904;2022-08-21T04:46:32;4.90;;;2.72;;
62574;SDS011;53112;45.602;11.904;2022-08-21T04:48:58;3.65;;;2.60;;
62574;SDS011;53112;45.602;11.904;2022-08-21T04:51:25;3.67;;;2.70;;
62574;SDS011;53112;45.602;11.904;2022-08-21T04:53:58;4.70;;;3.10;;
62574;SDS011;53112;45.602;11.904;2022-08-21T04:56:49;4.43;;;2.70;;
62574;SDS011;53112;45.602;11.904;2022-08-21T04:59:20;5.35;;;3.05;;
62574;SDS011;53112;45.602;11.904;2022-08-21T05:01:49;4.25;;;2.70;;
62574;SDS011;53112;45.602;11.904;2022-08-21T05:04:18;4.40;;;3.10;;
62574;SDS011;53112;45.602;11.904;2022-08-21T05:06:47;4.82;;;3.00;;
62574;SDS011;53112;45.602;11.904;2022-08-21T05:09:16;4.20;;;2.78;;
62574;SDS011;53112;45.602;11.904;2022-08-21T05:11:43;5.20;;;2.80;;
62574;SDS011;53112;45.602;11.904;2022-08-21T05:14:10;3.50;;;2.58;;
62574;SDS011;53112;45.602;11.904;2022-08-21T05:16:37;6.07;;;2.85;;
62574;SDS011;53112;45.602;11.904;2022-08-21T05:19:04;6.97;;;2.90;;
62574;SDS011;53112;45.602;11.904;2022-08-21T05:21:31;4.97;;;2.67;;
62574;SDS011;53112;45.602;11.904;2022-08-21T05:23:58;4.72;;;3.03;;
62574;SDS011;53112;45.602;11.904;2022-08-21T05:26:24;4.72;;;2.58;;
62574;SDS011;53112;45.602;11.904;2022-08-21T05:28:50;4.50;;;2.80;;
62574;SDS011;53112;45.602;11.904;2022-08-21T05:31:17;4.50;;;2.85;;
62574;SDS011;53112;45.602;11.904;2022-08-21T05:33:43;4.13;;;2.40;;
62574;SDS011;53112;45.602;11.904;2022-08-21T05:36:09;4.65;;;3.00;;
62574;SDS011;53112;45.602;11.904;2022-08-21T05:38:35;4.30;;;2.70;;
62574;SDS011;53112;45.602;11.904;2022-08-21T05:41:01;3.38;;;2.67;;
62574;SDS011;53112;45.602;11.904;2022-08-21T05:43:27;2.92;;;2.40;;
62574;SDS011;53112;45.602;11.904;2022-08-21T05:45:53;3.92;;;2.90;;
62574;SDS011;53112;45.602;11.904;2022-08-21T05:48:20;3.45;;;2.53;;
62574;SDS011;53112;45.602;11.904;2022-08-21T05:50:48;5.10;;;2.80;;
62574;SDS011;53112;45.602;11.904;2022-08-21T05:53:16;6.55;;;2.78;;
62574;SDS011;53112;45.602;11.904;2022-08-21T05:55:43;2.88;;;2.47;;
62574;SDS011;53112;45.602;11.904;2022-08-21T05:58:10;2.90;;;2.38;;
62574;SDS011;53112;45.602;11.904;2022-08-21T06:00:37;2.83;;;2.35;;
62574;SDS011;53112;45.602;11.904;2022-08-21T06:03:03;3.65;;;2.50;;
62574;SDS011;53112;45.602;11.904;2022-08-21T06:05:29;3.42;;;2.50;;
62574;SDS011;53112;45.602;11.904;2022-08-21T06:07:55;4.55;;;3.17;;
62574;SDS011;53112;45.602;11.904;2022-08-21T06:10:21;4.78;;;3.40;;
62574;SDS011;53112;45.602;11.904;2022-08-21T06:12:52;5.75;;;3.20;;
62574;SDS011;53112;45.602;11.904;2022-08-21T06:15:19;4.13;;;3.15;;
62574;SDS011;53112;45.602;11.904;2022-08-21T06:17:45;6.22;;;4.70;;
62574;SDS011;53112;45.602;11.904;2022-08-21T06:20:11;7.47;;;4.50;;
62574;SDS011;53112;45.602;11.904;2022-08-21T06:22:37;5.45;;;3.58;;
62574;SDS011;53112;45.602;11.904;2022-08-21T06:25:03;4.75;;;3.20;;
62574;SDS011;53112;45.602;11.904;2022-08-21T06:27:30;6.63;;;2.90;;
62574;SDS011;53112;45.602;11.904;2022-08-21T06:29:56;3.85;;;2.65;;
62574;SDS011;53112;45.602;11.904;2022-08-21T06:32:23;3.35;;;2.78;;
62574;SDS011;53112;45.602;11.904;2022-08-21T06:34:49;3.92;;;2.20;;
62574;SDS011;53112;45.602;11.904;2022-08-21T06:37:15;3.65;;;2.20;;
62574;SDS011;53112;45.602;11.904;2022-08-21T06:39:41;6.32;;;2.35;;
62574;SDS011;53112;45.602;11.904;2022-08-21T06:42:12;3.78;;;2.30;;
62574;SDS011;53112;45.602;11.904;2022-08-21T06:44:39;3.22;;;2.20;;
62574;SDS011;53112;45.602;11.904;2022-08-21T06:47:05;3.28;;;2.50;;
62574;SDS011;53112;45.602;11.904;2022-08-21T06:49:31;4.57;;;2.30;;
62574;SDS011;53112;45.602;11.904;2022-08-21T06:51:57;2.33;;;2.10;;
62574;SDS011;53112;45.602;11.904;2022-08-21T06:54:23;3.13;;;2.40;;
62574;SDS011;53112;45.602;11.904;2022-08-21T06:56:49;3.70;;;2.15;;
62574;SDS011;53112;45.602;11.904;2022-08-21T06:59:15;3.90;;;2.20;;
62574;SDS011;53112;45.602;11.904;2022-08-21T07:01:41;3.28;;;2.00;;
62574;SDS011;53112;45.602;11.904;2022-08-21T07:04:07;2.55;;;1.90;;
62574;SDS011;53112;45.602;11.904;2022-08-21T07:06:33;2.15;;;1.75;;
62574;SDS011;53112;45.602;11.904;2022-08-21T07:08:59;2.22;;;1.95;;
62574;SDS011;53112;45.602;11.904;2022-08-21T07:11:26;2.20;;;2.00;;
62574;SDS011;53112;45.602;11.904;2022-08-21T07:13:52;2.22;;;1.80;;
62574;SDS011;53112;45.602;11.904;2022-08-21T07:16:20;2.03;;;1.80;;
62574;SDS011;53112;45.602;11.904;2022-08-21T07:18:46;2.72;;;2.00;;
62574;SDS011;53112;45.602;11.904;2022-08-21T07:21:12;2.40;;;2.00;;
62574;SDS011;53112;45.602;11.904;2022-08-21T07:23:40;2.35;;;2.00;;
62574;SDS011;53112;45.602;11.904;2022-08-21T07:26:11;2.85;;;1.80;;
62574;SDS011;53112;45.602;11.904;2022-08-21T07:28:38;2.50;;;1.65;;
62574;SDS011;53112;45.602;11.904;2022-08-21T07:31:04;2.95;;;1.70;;
62574;SDS011;53112;45.602;11.904;2022-08-21T07:33:31;2.03;;;1.80;;
62574;SDS011;53112;45.602;11.904;2022-08-21T07:36:00;1.98;;;1.70;;
62574;SDS011;53112;45.602;11.904;2022-08-21T07:38:27;2.55;;;1.48;;
62574;SDS011;53112;45.602;11.904;2022-08-21T07:40:54;1.83;;;1.60;;
62574;SDS011;53112;45.602;11.904;2022-08-21T07:43:23;2.05;;;1.70;;
62574;SDS011;53112;45.602;11.904;2022-08-21T07:45:50;1.77;;;1.63;;
62574;SDS011;53112;45.602;11.904;2022-08-21T07:48:16;1.67;;;1.50;;
62574;SDS011;53112;45.602;11.904;2022-08-21T07:50:43;3.05;;;1.60;;
62574;SDS011;53112;45.602;11.904;2022-08-21T07:53:09;2.45;;;1.65;;
62574;SDS011;53112;45.602;11.904;2022-08-21T07:55:35;3.03;;;1.80;;
62574;SDS011;53112;45.602;11.904;2022-08-21T07:58:01;3.90;;;1.88;;
62574;SDS011;53112;45.602;11.904;2022-08-21T08:00:28;3.05;;;1.60;;
62574;SDS011;53112;45.602;11.904;2022-08-21T08:02:54;1.85;;;1.70;;
62574;SDS011;53112;45.602;11.904;2022-08-21T08:05:25;1.88;;;1.60;;
62574;SDS011;53112;45.602;11.904;2022-08-21T08:07:53;3.20;;;1.77;;
62574;SDS011;53112;45.602;11.904;2022-08-21T08:10:21;1.85;;;1.50;;
62574;SDS011;53112;45.602;11.904;2022-08-21T08:12:48;3.72;;;1.90;;
62574;SDS011;53112;45.602;11.904;2022-08-21T08:15:18;2.80;;;1.60;;
62574;SDS011;53112;45.602;11.904;2022-08-21T08:17:46;2.08;;;1.70;;
62574;SDS011;53112;45.602;11.904;2022-08-21T08:20:14;1.92;;;1.70;;
62574;SDS011;53112;45.602;11.904;2022-08-21T08:22:42;2.33;;;1.75;;
62574;SDS011;53112;45.602;11.904;2022-08-21T08:25:09;2.85;;;1.58;;
62574;SDS011;53112;45.602;11.904;2022-08-21T08:27:36;2.80;;;1.83;;
62574;SDS011;53112;45.602;11.904;2022-08-21T08:30:03;3.80;;;1.90;;
62574;SDS011;53112;45.602;11.904;2022-08-21T08:32:31;2.83;;;1.80;;
62574;SDS011;53112;45.602;11.904;2022-08-21T08:34:56;3.92;;;1.73;;
62574;SDS011;53112;45.602;11.904;2022-08-21T08:37:22;1.60;;;1.50;;
62574;SDS011;53112;45.602;11.904;2022-08-21T08:39:48;2.95;;;1.90;;
62574;SDS011;53112;45.602;11.904;2022-08-21T08:42:16;1.95;;;1.67;;
62574;SDS011;53112;45.602;11.904;2022-08-21T08:44:48;2.42;;;1.85;;
62574;SDS011;53112;45.602;11.904;2022-08-21T08:47:18;3.15;;;1.70;;
62574;SDS011;53112;45.602;11.904;2022-08-21T08:52:29;2.03;;;1.70;;
62574;SDS011;53112;45.602;11.904;2022-08-21T08:55:06;2.15;;;1.65;;
62574;SDS011;53112;45.602;11.904;2022-08-21T09:00:08;3.28;;;1.70;;
62574;SDS011;53112;45.602;11.904;2022-08-21T09:02:40;2.20;;;1.60;;
62574;SDS011;53112;45.602;11.904;2022-08-21T09:05:25;3.17;;;1.70;;
62574;SDS011;53112;45.602;11.904;2022-08-21T09:13:24;2.47;;;1.50;;
62574;SDS011;53112;45.602;11.904;2022-08-21T09:21:48;4.20;;;1.70;;
62574;SDS011;53112;45.602;11.904;2022-08-21T09:27:07;3.15;;;1.70;;
62574;SDS011;53112;45.602;11.904;2022-08-21T09:29:47;2.17;;;1.55;;
62574;SDS011;53112;45.602;11.904;2022-08-21T09:32:17;1.88;;;1.70;;
62574;SDS011;53112;45.602;11.904;2022-08-21T09:37:23;2.50;;;1.50;;
62574;SDS011;53112;45.602;11.904;2022-08-21T09:39:50;1.63;;;1.48;;
62574;SDS011;53112;45.602;11.904;2022-08-21T09:42:29;2.00;;;1.60;;
62574;SDS011;53112;45.602;11.904;2022-08-21T09:47:36;2.85;;;1.33;;
62574;SDS011;53112;45.602;11.904;2022-08-21T09:50:12;2.10;;;1.40;;
62574;SDS011;53112;45.602;11.904;2022-08-21T09:52:43;2.38;;;1.25;;
62574;SDS011;53112;45.602;11.904;2022-08-21T09:55:19;1.75;;;1.40;;
62574;SDS011;53112;45.602;11.904;2022-08-21T09:58:37;2.28;;;1.50;;
62574;SDS011;53112;45.602;11.904;2022-08-21T10:01:06;2.03;;;1.60;;
62574;SDS011;53112;45.602;11.904;2022-08-21T10:03:38;3.15;;;1.70;;
62574;SDS011;53112;45.602;11.904;2022-08-21T10:06:05;1.60;;;1.25;;
62574;SDS011;53112;45.602;11.904;2022-08-21T10:08:39;1.50;;;1.38;;
62574;SDS011;53112;45.602;11.904;2022-08-21T10:28:02;1.40;;;1.30;;
62574;SDS011;53112;45.602;11.904;2022-08-21T10:30:50;1.75;;;1.20;;
62574;SDS011;53112;45.602;11.904;2022-08-21T10:36:14;1.25;;;1.20;;
62574;SDS011;53112;45.602;11.904;2022-08-21T10:38:52;1.80;;;1.25;;
62574;SDS011;53112;45.602;11.904;2022-08-21T10:41:46;1.40;;;1.30;;
62574;SDS011;53112;45.602;11.904;2022-08-21T10:44:22;1.30;;;1.20;;
62574;SDS011;53112;45.602;11.904;2022-08-21T10:47:22;2.65;;;1.20;;
62574;SDS011;53112;45.602;11.904;2022-08-21T10:50:08;1.92;;;1.40;;
62574;SDS011;53112;45.602;11.904;2022-08-21T10:55:11;1.70;;;1.17;;
62574;SDS011;53112;45.602;11.904;2022-08-21T10:57:54;1.75;;;1.30;;
62574;SDS011;53112;45.602;11.904;2022-08-21T11:00:39;2.45;;;1.25;;
62574;SDS011;53112;45.602;11.904;2022-08-21T11:03:15;1.33;;;1.23;;
62574;SDS011;53112;45.602;11.904;2022-08-21T11:05:50;2.05;;;1.20;;
62574;SDS011;53112;45.602;11.904;2022-08-21T11:11:10;1.17;;;1.00;;
62574;SDS011;53112;45.602;11.904;2022-08-21T11:13:53;1.05;;;0.93;;
62574;SDS011;53112;45.602;11.904;2022-08-21T11:16:45;1.67;;;1.27;;
62574;SDS011;53112;45.602;11.904;2022-08-21T11:24:41;1.70;;;1.30;;
62574;SDS011;53112;45.602;11.904;2022-08-21T11:29:51;1.10;;;1.10;;
62574;SDS011;53112;45.602;11.904;2022-08-21T11:35:13;2.03;;;1.10;;
62574;SDS011;53112;45.602;11.904;2022-08-21T11:43:46;3.88;;;1.63;;
62574;SDS011;53112;45.602;11.904;2022-08-21T11:57:14;1.40;;;1.30;;
62574;SDS011;53112;45.602;11.904;2022-08-21T11:59:55;1.20;;;0.95;;
62574;SDS011;53112;45.602;11.904;2022-08-21T12:02:35;1.73;;;1.20;;
62574;SDS011;53112;45.602;11.904;2022-08-21T12:05:07;2.25;;;1.23;;
62574;SDS011;53112;45.602;11.904;2022-08-21T12:07:38;2.00;;;1.00;;
62574;SDS011;53112;45.602;11.904;2022-08-21T12:10:15;0.80;;;0.80;;
62574;SDS011;53112;45.602;11.904;2022-08-21T12:12:46;0.80;;;0.80;;
62574;SDS011;53112;45.602;11.904;2022-08-21T12:21:17;1.40;;;1.00;;
62574;SDS011;53112;45.602;11.904;2022-08-21T12:24:02;1.30;;;1.20;;
62574;SDS011;53112;45.602;11.904;2022-08-21T12:26:49;1.38;;;1.27;;
62574;SDS011;53112;45.602;11.904;2022-08-21T12:29:33;0.80;;;0.80;;
62574;SDS011;53112;45.602;11.904;2022-08-21T12:32:04;0.82;;;0.82;;
62574;SDS011;53112;45.602;11.904;2022-08-21T12:34:54;2.13;;;1.10;;
62574;SDS011;53112;45.602;11.904;2022-08-21T12:37:52;1.48;;;0.80;;
62574;SDS011;53112;45.602;11.904;2022-08-21T12:42:57;0.80;;;0.80;;
62574;SDS011;53112;45.602;11.904;2022-08-21T12:48:13;0.70;;;0.70;;
62574;SDS011;53112;45.602;11.904;2022-08-21T12:50:53;1.35;;;1.00;;
62574;SDS011;53112;45.602;11.904;2022-08-21T12:53:30;0.90;;;0.90;;
62574;SDS011;53112;45.602;11.904;2022-08-21T12:56:02;1.00;;;0.90;;
62574;SDS011;53112;45.602;11.904;2022-08-21T12:58:30;1.25;;;0.90;;
62574;SDS011;53112;45.602;11.904;2022-08-21T13:01:04;0.70;;;0.70;;
62574;SDS011;53112;45.602;11.904;2022-08-21T13:03:36;1.25;;;0.70;;
62574;SDS011;53112;45.602;11.904;2022-08-21T13:06:04;0.93;;;0.90;;
62574;SDS011;53112;45.602;11.904;2022-08-21T13:08:31;1.40;;;0.70;;
62574;SDS011;53112;45.602;11.904;2022-08-21T13:11:00;1.10;;;0.90;;
62574;SDS011;53112;45.602;11.904;2022-08-21T13:13:30;1.05;;;0.80;;
62574;SDS011;53112;45.602;11.904;2022-08-21T13:15:58;1.20;;;0.80;;
62574;SDS011;53112;45.602;11.904;2022-08-21T13:18:29;2.72;;;0.90;;
62574;SDS011;53112;45.602;11.904;2022-08-21T13:24:13;1.90;;;1.10;;
62574;SDS011;53112;45.602;11.904;2022-08-21T13:26:45;1.10;;;1.00;;
62574;SDS011;53112;45.602;11.904;2022-08-21T13:29:13;1.58;;;0.90;;
62574;SDS011;53112;45.602;11.904;2022-08-21T13:31:46;1.15;;;0.90;;
62574;SDS011;53112;45.602;11.904;2022-08-21T13:34:20;1.67;;;1.00;;
62574;SDS011;53112;45.602;11.904;2022-08-21T13:36:51;1.42;;;1.10;;
62574;SDS011;53112;45.602;11.904;2022-08-21T13:39:20;1.30;;;1.20;;
62574;SDS011;53112;45.602;11.904;2022-08-21T13:41:48;1.83;;;1.05;;
62574;SDS011;53112;45.602;11.904;2022-08-21T13:44:21;3.88;;;1.20;;
62574;SDS011;53112;45.602;11.904;2022-08-21T13:47:00;1.27;;;1.10;;
62574;SDS011;53112;45.602;11.904;2022-08-21T13:49:33;1.67;;;1.20;;
62574;SDS011;53112;45.602;11.904;2022-08-21T13:52:04;2.50;;;1.20;;
62574;SDS011;53112;45.602;11.904;2022-08-21T13:54:40;1.35;;;1.10;;
62574;SDS011;53112;45.602;11.904;2022-08-21T13:57:15;0.80;;;0.80;;
62574;SDS011;53112;45.602;11.904;2022-08-21T13:59:43;1.13;;;1.00;;
62574;SDS011;53112;45.602;11.904;2022-08-21T14:04:56;2.45;;;1.20;;
62574;SDS011;53112;45.602;11.904;2022-08-21T14:07:25;2.35;;;1.10;;
62574;SDS011;53112;45.602;11.904;2022-08-21T14:10:22;1.10;;;1.00;;
62574;SDS011;53112;45.602;11.904;2022-08-21T14:12:51;1.75;;;1.02;;
62574;SDS011;53112;45.602;11.904;2022-08-21T14:15:22;2.00;;;1.20;;
62574;SDS011;53112;45.602;11.904;2022-08-21T14:17:50;1.63;;;1.10;;
62574;SDS011;53112;45.602;11.904;2022-08-21T14:22:58;2.45;;;1.23;;
62574;SDS011;53112;45.602;11.904;2022-08-21T14:30:34;1.05;;;0.95;;
62574;SDS011;53112;45.602;11.904;2022-08-21T14:33:04;1.33;;;1.00;;
62574;SDS011;53112;45.602;11.904;2022-08-21T14:35:35;1.60;;;1.10;;
62574;SDS011;53112;45.602;11.904;2022-08-21T14:38:02;1.35;;;1.13;;
62574;SDS011;53112;45.602;11.904;2022-08-21T14:40:36;2.17;;;1.10;;
62574;SDS011;53112;45.602;11.904;2022-08-21T14:43:02;1.70;;;1.00;;
62574;SDS011;53112;45.602;11.904;2022-08-21T14:45:29;1.55;;;1.20;;
62574;SDS011;53112;45.602;11.904;2022-08-21T14:47:56;1.15;;;1.05;;
62574;SDS011;53112;45.602;11.904;2022-08-21T14:50:24;2.45;;;1.38;;
62574;SDS011;53112;45.602;11.904;2022-08-21T14:52:51;2.67;;;1.38;;
62574;SDS011;53112;45.602;11.904;2022-08-21T14:55:17;2.97;;;1.27;;
62574;SDS011;53112;45.602;11.904;2022-08-21T14:57:51;1.60;;;1.27;;
62574;SDS011;53112;45.602;11.904;2022-08-21T15:00:20;3.08;;;1.35;;
62574;SDS011;53112;45.602;11.904;2022-08-21T15:02:50;1.23;;;1.10;;
62574;SDS011;53112;45.602;11.904;2022-08-21T15:05:18;1.70;;;1.20;;
62574;SDS011;53112;45.602;11.904;2022-08-21T15:07:44;1.13;;;1.00;;
62574;SDS011;53112;45.602;11.904;2022-08-21T15:10:10;2.47;;;1.15;;
62574;SDS011;53112;45.602;11.904;2022-08-21T15:12:43;1.67;;;1.20;;
62574;SDS011;53112;45.602;11.904;2022-08-21T15:15:09;2.33;;;1.10;;
62574;SDS011;53112;45.602;11.904;2022-08-21T15:17:35;1.25;;;1.02;;
62574;SDS011;53112;45.602;11.904;2022-08-21T15:20:02;2.03;;;1.30;;
62574;SDS011;53112;45.602;11.904;2022-08-21T15:22:31;1.33;;;1.23;;
62574;SDS011;53112;45.602;11.904;2022-08-21T15:24:57;2.55;;;1.30;;
62574;SDS011;53112;45.602;11.904;2022-08-21T15:27:22;2.95;;;1.55;;
62574;SDS011;53112;45.602;11.904;2022-08-21T15:29:48;2.70;;;1.50;;
62574;SDS011;53112;45.602;11.904;2022-08-21T15:32:19;1.73;;;1.13;;
62574;SDS011;53112;45.602;11.904;2022-08-21T15:34:51;5.10;;;1.30;;
62574;SDS011;53112;45.602;11.904;2022-08-21T15:37:18;2.22;;;1.40;;
62574;SDS011;53112;45.602;11.904;2022-08-21T15:39:45;3.25;;;1.40;;
62574;SDS011;53112;45.602;11.904;2022-08-21T15:42:11;1.83;;;1.20;;
62574;SDS011;53112;45.602;11.904;2022-08-21T15:44:39;4.47;;;1.40;;
62574;SDS011;53112;45.602;11.904;2022-08-21T15:47:07;1.88;;;1.10;;
62574;SDS011;53112;45.602;11.904;2022-08-21T15:49:38;3.28;;;1.42;;
62574;SDS011;53112;45.602;11.904;2022-08-21T15:52:04;2.78;;;1.23;;
62574;SDS011;53112;45.602;11.904;2022-08-21T15:54:30;1.52;;;1.10;;
62574;SDS011;53112;45.602;11.904;2022-08-21T15:56:56;2.67;;;1.20;;
62574;SDS011;53112;45.602;11.904;2022-08-21T15:59:23;2.78;;;1.20;;
62574;SDS011;53112;45.602;11.904;2022-08-21T16:01:50;1.10;;;1.00;;
62574;SDS011;53112;45.602;11.904;2022-08-21T16:04:26;2.33;;;1.20;;
62574;SDS011;53112;45.602;11.904;2022-08-21T16:06:53;2.25;;;1.10;;
62574;SDS011;53112;45.602;11.904;2022-08-21T16:09:20;2.83;;;1.17;;
62574;SDS011;53112;45.602;11.904;2022-08-21T16:11:46;2.33;;;1.20;;
62574;SDS011;53112;45.602;11.904;2022-08-21T16:14:13;2.45;;;1.20;;
62574;SDS011;53112;45.602;11.904;2022-08-21T16:16:41;1.65;;;1.23;;
62574;SDS011;53112;45.602;11.904;2022-08-21T16:19:08;1.65;;;1.30;;
62574;SDS011;53112;45.602;11.904;2022-08-21T16:21:36;2.00;;;1.30;;
62574;SDS011;53112;45.602;11.904;2022-08-21T16:24:02;1.80;;;1.15;;
62574;SDS011;53112;45.602;11.904;2022-08-21T16:26:28;1.40;;;1.10;;
62574;SDS011;53112;45.602;11.904;2022-08-21T16:28:56;1.73;;;1.20;;